sensor_id;sensor_type;location;lat;lon;timestamp;pressure;altitude;pressure_sealevel;temperature;humidity
41254;BME280;26987;59.928;30.306;2023-04-30T00:00:21;101241.34;;;5.02;54.71
41254;BME280;26987;59.928;30.306;2023-04-30T00:02:49;101233.06;;;5.05;55.31
41254;BME280;26987;59.928;30.306;2023-04-30T00:05:17;101237.59;;;5.13;54.97
41254;BME280;26987;59.928;30.306;2023-04-30T00:07:45;101238.31;;;5.23;54.00
41254;BME280;26987;59.928;30.306;2023-04-30T00:10:13;101227.22;;;5.28;53.28
41254;BME280;26987;59.928;30.306;2023-04-30T00:12:41;101233.38;;;5.37;52.92
41254;BME280;26987;59.928;30.306;2023-04-30T00:15:09;101220.47;;;5.42;53.43
41254;BME280;26987;59.928;30.306;2023-04-30T00:17:38;101209.66;;;5.43;52.79
41254;BME280;26987;59.928;30.306;2023-04-30T00:20:07;101210.84;;;5.49;52.91
41254;BME280;26987;59.928;30.306;2023-04-30T00:22:35;101202.38;;;5.54;52.37
41254;BME280;26987;59.928;30.306;2023-04-30T00:25:03;101194.72;;;5.59;52.37
41254;BME280;26987;59.928;30.306;2023-04-30T00:27:31;101187.25;;;5.63;52.34
41254;BME280;26987;59.928;30.306;2023-04-30T00:29:59;101183.44;;;5.65;52.69
41254;BME280;26987;59.928;30.306;2023-04-30T00:32:27;101180.28;;;5.70;52.09
41254;BME280;26987;59.928;30.306;2023-04-30T00:34:56;101179.28;;;5.71;52.10
41254;BME280;26987;59.928;30.306;2023-04-30T00:37:24;101158.47;;;5.66;52.19
41254;BME280;26987;59.928;30.306;2023-04-30T00:39:52;101173.47;;;5.76;52.22
41254;BME280;26987;59.928;30.306;2023-04-30T00:42:20;101166.97;;;5.78;52.00
41254;BME280;26987;59.928;30.306;2023-04-30T00:44:48;101165.84;;;5.81;51.53
41254;BME280;26987;59.928;30.306;2023-04-30T00:47:15;101156.34;;;5.78;51.12
41254;BME280;26987;59.928;30.306;2023-04-30T00:49:43;101160.53;;;5.81;50.93
41254;BME280;26987;59.928;30.306;2023-04-30T00:52:13;101155.84;;;5.83;51.52
41254;BME280;26987;59.928;30.306;2023-04-30T00:54:41;101154.34;;;5.80;50.76
41254;BME280;26987;59.928;30.306;2023-04-30T00:57:11;101143.38;;;5.84;50.75
41254;BME280;26987;59.928;30.306;2023-04-30T00:59:40;101133.91;;;5.81;50.98
41254;BME280;26987;59.928;30.306;2023-04-30T01:02:08;101132.22;;;5.80;50.76
41254;BME280;26987;59.928;30.306;2023-04-30T01:04:37;101125.25;;;5.79;51.62
41254;BME280;26987;59.928;30.306;2023-04-30T01:07:05;101123.25;;;5.81;50.91
41254;BME280;26987;59.928;30.306;2023-04-30T01:09:35;101115.59;;;5.86;49.96
41254;BME280;26987;59.928;30.306;2023-04-30T01:12:07;101109.97;;;5.81;51.43
41254;BME280;26987;59.928;30.306;2023-04-30T01:14:46;101116.91;;;5.90;51.12
41254;BME280;26987;59.928;30.306;2023-04-30T01:17:24;101115.25;;;5.89;50.88
41254;BME280;26987;59.928;30.306;2023-04-30T01:19:55;101109.47;;;5.86;50.52
41254;BME280;26987;59.928;30.306;2023-04-30T01:22:31;101087.81;;;5.80;50.91
41254;BME280;26987;59.928;30.306;2023-04-30T01:25:24;101080.34;;;5.84;50.76
41254;BME280;26987;59.928;30.306;2023-04-30T01:28:04;101072.19;;;5.86;50.81
41254;BME280;26987;59.928;30.306;2023-04-30T01:30:34;101084.66;;;5.85;50.93
41254;BME280;26987;59.928;30.306;2023-04-30T01:33:03;101032.44;;;5.59;50.67
41254;BME280;26987;59.928;30.306;2023-04-30T01:36:04;101073.34;;;5.91;51.16
41254;BME280;26987;59.928;30.306;2023-04-30T01:41:32;101066.19;;;5.92;51.21
41254;BME280;26987;59.928;30.306;2023-04-30T01:44:16;101055.38;;;5.93;50.63
41254;BME280;26987;59.928;30.306;2023-04-30T01:46:53;101054.38;;;5.95;50.78
41254;BME280;26987;59.928;30.306;2023-04-30T01:49:31;101049.72;;;5.97;51.28
41254;BME280;26987;59.928;30.306;2023-04-30T01:52:09;101038.56;;;6.01;51.04
41254;BME280;26987;59.928;30.306;2023-04-30T01:54:44;101018.59;;;5.97;50.84
41254;BME280;26987;59.928;30.306;2023-04-30T01:57:22;101027.09;;;6.09;50.93
41254;BME280;26987;59.928;30.306;2023-04-30T01:59:53;101027.44;;;6.14;51.21
41254;BME280;26987;59.928;30.306;2023-04-30T02:02:21;101012.28;;;6.15;50.85
41254;BME280;26987;59.928;30.306;2023-04-30T02:04:49;101014.13;;;6.14;51.83
41254;BME280;26987;59.928;30.306;2023-04-30T02:07:27;100982.84;;;6.08;51.69
41254;BME280;26987;59.928;30.306;2023-04-30T02:10:05;101000.59;;;6.24;51.86
41254;BME280;26987;59.928;30.306;2023-04-30T02:12:33;100993.97;;;6.20;51.79
41254;BME280;26987;59.928;30.306;2023-04-30T02:15:03;100994.75;;;6.29;51.48
41254;BME280;26987;59.928;30.306;2023-04-30T02:17:32;100989.78;;;6.26;51.58
41254;BME280;26987;59.928;30.306;2023-04-30T02:20:00;100987.63;;;6.29;52.19
41254;BME280;26987;59.928;30.306;2023-04-30T02:22:27;100979.44;;;6.31;52.41
41254;BME280;26987;59.928;30.306;2023-04-30T02:24:55;100961.78;;;6.30;52.41
41254;BME280;26987;59.928;30.306;2023-04-30T02:27:24;100952.84;;;6.23;52.89
41254;BME280;26987;59.928;30.306;2023-04-30T02:29:53;100972.94;;;6.34;53.07
41254;BME280;26987;59.928;30.306;2023-04-30T02:32:23;100968.09;;;6.37;53.59
41254;BME280;26987;59.928;30.306;2023-04-30T02:34:50;100967.75;;;6.40;53.56
41254;BME280;26987;59.928;30.306;2023-04-30T02:37:18;100963.06;;;6.42;53.56
41254;BME280;26987;59.928;30.306;2023-04-30T02:39:46;100965.06;;;6.49;53.88
41254;BME280;26987;59.928;30.306;2023-04-30T02:42:14;100970.03;;;6.52;53.75
41254;BME280;26987;59.928;30.306;2023-04-30T02:44:42;100960.00;;;6.54;53.57
41254;BME280;26987;59.928;30.306;2023-04-30T02:47:10;100957.94;;;6.73;53.62
41254;BME280;26987;59.928;30.306;2023-04-30T02:49:39;100950.00;;;7.11;52.60
41254;BME280;26987;59.928;30.306;2023-04-30T02:52:07;100944.34;;;7.29;51.77
41254;BME280;26987;59.928;30.306;2023-04-30T02:54:36;100939.38;;;7.26;51.94
41254;BME280;26987;59.928;30.306;2023-04-30T02:57:04;100911.91;;;7.02;52.16
41254;BME280;26987;59.928;30.306;2023-04-30T02:59:32;100938.22;;;7.05;52.96
41254;BME280;26987;59.928;30.306;2023-04-30T03:02:00;100931.94;;;6.98;52.83
41254;BME280;26987;59.928;30.306;2023-04-30T03:04:28;100948.28;;;6.95;53.29
41254;BME280;26987;59.928;30.306;2023-04-30T03:06:57;100939.41;;;7.03;52.63
41254;BME280;26987;59.928;30.306;2023-04-30T03:09:25;100928.75;;;7.03;53.08
41254;BME280;26987;59.928;30.306;2023-04-30T03:11:53;100918.34;;;7.08;52.53
41254;BME280;26987;59.928;30.306;2023-04-30T03:14:21;100932.16;;;7.12;52.47
41254;BME280;26987;59.928;30.306;2023-04-30T03:16:49;100915.28;;;7.19;52.05
41254;BME280;26987;59.928;30.306;2023-04-30T03:19:17;100923.53;;;7.25;52.27
41254;BME280;26987;59.928;30.306;2023-04-30T03:21:50;100913.72;;;7.25;51.88
41254;BME280;26987;59.928;30.306;2023-04-30T03:24:23;100913.19;;;7.30;51.84
41254;BME280;26987;59.928;30.306;2023-04-30T03:26:51;100919.53;;;7.29;52.00
41254;BME280;26987;59.928;30.306;2023-04-30T03:29:19;100918.69;;;7.28;51.94
41254;BME280;26987;59.928;30.306;2023-04-30T03:31:47;100918.50;;;7.30;52.08
41254;BME280;26987;59.928;30.306;2023-04-30T03:34:14;100907.75;;;7.38;50.77
41254;BME280;26987;59.928;30.306;2023-04-30T03:36:42;100900.69;;;7.45;50.81
41254;BME280;26987;59.928;30.306;2023-04-30T03:39:10;100891.03;;;7.44;50.52
41254;BME280;26987;59.928;30.306;2023-04-30T03:41:39;100890.59;;;7.56;50.54
41254;BME280;26987;59.928;30.306;2023-04-30T03:44:07;100888.91;;;7.55;50.19
41254;BME280;26987;59.928;30.306;2023-04-30T03:46:41;100844.75;;;7.37;50.37
41254;BME280;26987;59.928;30.306;2023-04-30T03:49:09;100873.19;;;7.60;50.37
41254;BME280;26987;59.928;30.306;2023-04-30T03:51:38;100872.84;;;7.63;49.73
41254;BME280;26987;59.928;30.306;2023-04-30T03:54:07;100865.44;;;7.65;49.51
41254;BME280;26987;59.928;30.306;2023-04-30T03:56:35;100853.59;;;7.68;49.52
41254;BME280;26987;59.928;30.306;2023-04-30T03:59:05;100850.16;;;7.74;49.50
41254;BME280;26987;59.928;30.306;2023-04-30T04:01:33;100843.19;;;7.73;49.38
41254;BME280;26987;59.928;30.306;2023-04-30T04:04:01;100843.72;;;7.83;49.07
41254;BME280;26987;59.928;30.306;2023-04-30T04:06:30;100826.78;;;7.91;48.74
41254;BME280;26987;59.928;30.306;2023-04-30T04:08:58;100831.63;;;8.03;48.40
41254;BME280;26987;59.928;30.306;2023-04-30T04:11:26;100820.19;;;8.09;47.85
41254;BME280;26987;59.928;30.306;2023-04-30T04:13:55;100828.47;;;8.14;47.86
41254;BME280;26987;59.928;30.306;2023-04-30T04:16:24;100825.28;;;8.04;48.27
41254;BME280;26987;59.928;30.306;2023-04-30T04:18:52;100798.53;;;7.82;48.79
41254;BME280;26987;59.928;30.306;2023-04-30T04:21:20;100814.53;;;7.82;48.65
41254;BME280;26987;59.928;30.306;2023-04-30T04:23:48;100789.44;;;7.76;48.59
41254;BME280;26987;59.928;30.306;2023-04-30T04:26:16;100821.34;;;8.00;48.38
41254;BME280;26987;59.928;30.306;2023-04-30T04:28:47;100816.00;;;8.00;48.88
41254;BME280;26987;59.928;30.306;2023-04-30T04:31:15;100816.91;;;8.07;48.54
41254;BME280;26987;59.928;30.306;2023-04-30T04:33:44;100812.97;;;8.25;48.11
41254;BME280;26987;59.928;30.306;2023-04-30T04:36:12;100823.22;;;8.43;47.48
41254;BME280;26987;59.928;30.306;2023-04-30T04:38:40;100817.06;;;8.86;46.29
41254;BME280;26987;59.928;30.306;2023-04-30T04:41:09;100814.47;;;9.00;45.96
41254;BME280;26987;59.928;30.306;2023-04-30T04:43:36;100801.19;;;8.85;46.03
41254;BME280;26987;59.928;30.306;2023-04-30T04:46:04;100814.28;;;8.73;46.13
41254;BME280;26987;59.928;30.306;2023-04-30T04:48:34;100807.97;;;8.58;46.75
41254;BME280;26987;59.928;30.306;2023-04-30T04:51:04;100808.38;;;8.55;47.15
41254;BME280;26987;59.928;30.306;2023-04-30T04:53:32;100782.25;;;8.36;47.31
41254;BME280;26987;59.928;30.306;2023-04-30T04:56:00;100811.28;;;8.61;46.80
41254;BME280;26987;59.928;30.306;2023-04-30T04:58:28;100813.44;;;8.72;46.56
41254;BME280;26987;59.928;30.306;2023-04-30T05:00:56;100812.75;;;8.85;46.28
41254;BME280;26987;59.928;30.306;2023-04-30T05:03:25;100814.25;;;8.94;46.11
41254;BME280;26987;59.928;30.306;2023-04-30T05:05:53;100807.03;;;8.95;45.94
41254;BME280;26987;59.928;30.306;2023-04-30T05:08:23;100777.50;;;8.75;46.10
41254;BME280;26987;59.928;30.306;2023-04-30T05:10:52;100809.72;;;8.95;45.78
41254;BME280;26987;59.928;30.306;2023-04-30T05:13:20;100796.22;;;9.03;46.04
41254;BME280;26987;59.928;30.306;2023-04-30T05:15:49;100792.22;;;9.21;45.62
41254;BME280;26987;59.928;30.306;2023-04-30T05:18:18;100815.78;;;9.88;44.34
41254;BME280;26987;59.928;30.306;2023-04-30T05:20:45;100819.22;;;10.31;43.13
41254;BME280;26987;59.928;30.306;2023-04-30T05:23:14;100814.69;;;10.38;43.26
41254;BME280;26987;59.928;30.306;2023-04-30T05:25:43;100798.19;;;10.28;43.02
41254;BME280;26987;59.928;30.306;2023-04-30T05:28:11;100783.69;;;10.02;43.24
41254;BME280;26987;59.928;30.306;2023-04-30T05:30:39;100779.13;;;9.82;43.63
41254;BME280;26987;59.928;30.306;2023-04-30T05:33:07;100767.09;;;9.64;44.12
41254;BME280;26987;59.928;30.306;2023-04-30T05:35:35;100772.63;;;9.56;44.56
41254;BME280;26987;59.928;30.306;2023-04-30T05:38:03;100765.59;;;9.55;44.04
41254;BME280;26987;59.928;30.306;2023-04-30T05:40:31;100768.97;;;9.70;44.04
41254;BME280;26987;59.928;30.306;2023-04-30T05:43:00;100772.97;;;9.95;43.17
41254;BME280;26987;59.928;30.306;2023-04-30T05:45:28;100782.69;;;10.09;42.70
41254;BME280;26987;59.928;30.306;2023-04-30T05:47:56;100785.66;;;10.62;41.81
41254;BME280;26987;59.928;30.306;2023-04-30T05:50:25;100785.25;;;10.79;41.44
41254;BME280;26987;59.928;30.306;2023-04-30T05:52:53;100769.59;;;10.62;41.79
41254;BME280;26987;59.928;30.306;2023-04-30T05:55:21;100764.22;;;10.76;41.74
41254;BME280;26987;59.928;30.306;2023-04-30T05:57:48;100765.69;;;11.58;39.97
41254;BME280;26987;59.928;30.306;2023-04-30T06:00:18;100766.09;;;12.01;39.68
41254;BME280;26987;59.928;30.306;2023-04-30T06:02:46;100762.38;;;12.02;39.21
41254;BME280;26987;59.928;30.306;2023-04-30T06:05:14;100764.22;;;12.08;38.69
41254;BME280;26987;59.928;30.306;2023-04-30T06:07:42;100768.53;;;12.41;38.44
41254;BME280;26987;59.928;30.306;2023-04-30T06:10:10;100776.94;;;12.52;38.29
41254;BME280;26987;59.928;30.306;2023-04-30T06:12:39;100762.84;;;12.56;38.33
41254;BME280;26987;59.928;30.306;2023-04-30T06:15:09;100779.63;;;13.21;37.27
41254;BME280;26987;59.928;30.306;2023-04-30T06:17:38;100775.75;;;13.36;36.94
41254;BME280;26987;59.928;30.306;2023-04-30T06:20:07;100782.03;;;13.48;36.71
41254;BME280;26987;59.928;30.306;2023-04-30T06:22:35;100765.19;;;13.34;36.77
41254;BME280;26987;59.928;30.306;2023-04-30T06:25:04;100751.06;;;13.58;36.24
41254;BME280;26987;59.928;30.306;2023-04-30T06:27:32;100784.16;;;14.38;35.23
41254;BME280;26987;59.928;30.306;2023-04-30T06:30:00;100788.84;;;14.98;34.40
41254;BME280;26987;59.928;30.306;2023-04-30T06:32:28;100784.97;;;15.18;33.97
41254;BME280;26987;59.928;30.306;2023-04-30T06:34:57;100693.66;;;14.31;33.86
41254;BME280;26987;59.928;30.306;2023-04-30T06:37:25;100771.13;;;14.90;33.93
41254;BME280;26987;59.928;30.306;2023-04-30T06:39:53;100767.94;;;15.87;32.41
41254;BME280;26987;59.928;30.306;2023-04-30T06:42:21;100756.59;;;16.32;31.24
41254;BME280;26987;59.928;30.306;2023-04-30T06:44:49;100757.72;;;15.89;31.50
41254;BME280;26987;59.928;30.306;2023-04-30T06:47:17;100778.25;;;15.20;32.49
41254;BME280;26987;59.928;30.306;2023-04-30T06:49:45;100774.84;;;14.65;33.57
41254;BME280;26987;59.928;30.306;2023-04-30T06:52:14;100782.66;;;14.43;34.13
41254;BME280;26987;59.928;30.306;2023-04-30T06:54:42;100780.66;;;14.38;34.02
41254;BME280;26987;59.928;30.306;2023-04-30T06:57:09;100766.59;;;14.60;33.91
41254;BME280;26987;59.928;30.306;2023-04-30T06:59:37;100776.41;;;14.85;33.59
41254;BME280;26987;59.928;30.306;2023-04-30T07:02:05;100777.81;;;14.99;33.41
41254;BME280;26987;59.928;30.306;2023-04-30T07:04:33;100780.38;;;15.06;33.18
41254;BME280;26987;59.928;30.306;2023-04-30T07:07:01;100781.09;;;15.13;32.93
41254;BME280;26987;59.928;30.306;2023-04-30T07:09:31;100773.31;;;15.17;33.40
41254;BME280;26987;59.928;30.306;2023-04-30T07:11:59;100774.66;;;14.79;33.66
41254;BME280;26987;59.928;30.306;2023-04-30T07:14:26;100760.25;;;14.42;34.09
41254;BME280;26987;59.928;30.306;2023-04-30T07:16:54;100761.88;;;13.89;35.39
41254;BME280;26987;59.928;30.306;2023-04-30T07:19:22;100773.28;;;13.72;35.91
41254;BME280;26987;59.928;30.306;2023-04-30T07:21:52;100762.53;;;13.53;36.25
41254;BME280;26987;59.928;30.306;2023-04-30T07:24:20;100777.09;;;13.27;36.90
41254;BME280;26987;59.928;30.306;2023-04-30T07:26:49;100783.34;;;13.02;37.79
41254;BME280;26987;59.928;30.306;2023-04-30T07:29:17;100781.06;;;12.80;38.03
41254;BME280;26987;59.928;30.306;2023-04-30T07:31:45;100779.25;;;12.73;38.46
41254;BME280;26987;59.928;30.306;2023-04-30T07:34:13;100791.72;;;12.68;39.84
41254;BME280;26987;59.928;30.306;2023-04-30T07:36:40;100785.19;;;12.57;40.49
41254;BME280;26987;59.928;30.306;2023-04-30T07:39:08;100777.44;;;12.42;40.21
41254;BME280;26987;59.928;30.306;2023-04-30T07:41:37;100791.81;;;12.29;41.33
41254;BME280;26987;59.928;30.306;2023-04-30T07:44:06;100790.69;;;12.36;41.34
41254;BME280;26987;59.928;30.306;2023-04-30T07:46:34;100788.81;;;12.44;40.65
41254;BME280;26987;59.928;30.306;2023-04-30T07:49:02;100781.72;;;12.49;41.33
41254;BME280;26987;59.928;30.306;2023-04-30T07:51:30;100793.06;;;12.52;43.17
41254;BME280;26987;59.928;30.306;2023-04-30T07:53:59;100797.03;;;12.49;43.02
41254;BME280;26987;59.928;30.306;2023-04-30T07:56:27;100789.63;;;12.44;41.96
41254;BME280;26987;59.928;30.306;2023-04-30T07:58:54;100803.16;;;12.31;42.28
41254;BME280;26987;59.928;30.306;2023-04-30T08:01:24;100800.94;;;12.21;43.08
41254;BME280;26987;59.928;30.306;2023-04-30T08:03:52;100795.44;;;12.09;43.20
41254;BME280;26987;59.928;30.306;2023-04-30T08:06:19;100797.50;;;12.07;43.58
41254;BME280;26987;59.928;30.306;2023-04-30T08:08:48;100796.28;;;12.03;43.83
41254;BME280;26987;59.928;30.306;2023-04-30T08:11:16;100796.72;;;11.93;44.27
41254;BME280;26987;59.928;30.306;2023-04-30T08:13:44;100803.78;;;11.87;44.50
41254;BME280;26987;59.928;30.306;2023-04-30T08:16:11;100812.91;;;11.79;45.28
41254;BME280;26987;59.928;30.306;2023-04-30T08:18:41;100818.69;;;11.83;46.02
41254;BME280;26987;59.928;30.306;2023-04-30T08:21:10;100820.31;;;11.84;46.30
41254;BME280;26987;59.928;30.306;2023-04-30T08:23:38;100809.00;;;11.75;46.86
41254;BME280;26987;59.928;30.306;2023-04-30T08:26:06;100816.25;;;11.68;47.46
41254;BME280;26987;59.928;30.306;2023-04-30T08:28:34;100806.56;;;11.60;48.31
41254;BME280;26987;59.928;30.306;2023-04-30T08:31:01;100821.47;;;11.56;49.50
41254;BME280;26987;59.928;30.306;2023-04-30T08:33:29;100819.81;;;11.48;50.36
41254;BME280;26987;59.928;30.306;2023-04-30T08:35:59;100836.19;;;11.40;51.63
41254;BME280;26987;59.928;30.306;2023-04-30T08:38:27;100829.59;;;11.22;52.82
41254;BME280;26987;59.928;30.306;2023-04-30T08:41:03;100840.75;;;11.12;53.87
41254;BME280;26987;59.928;30.306;2023-04-30T08:43:33;100841.38;;;10.80;56.50
41254;BME280;26987;59.928;30.306;2023-04-30T08:46:02;100847.16;;;10.57;59.48
41254;BME280;26987;59.928;30.306;2023-04-30T08:48:30;100807.19;;;10.06;61.24
41254;BME280;26987;59.928;30.306;2023-04-30T08:51:00;100863.69;;;10.18;63.97
41254;BME280;26987;59.928;30.306;2023-04-30T08:53:29;100851.63;;;9.87;66.18
41254;BME280;26987;59.928;30.306;2023-04-30T08:55:57;100870.56;;;9.79;67.75
41254;BME280;26987;59.928;30.306;2023-04-30T08:58:25;100872.94;;;9.60;68.40
41254;BME280;26987;59.928;30.306;2023-04-30T09:00:53;100879.03;;;9.47;69.49
41254;BME280;26987;59.928;30.306;2023-04-30T09:03:21;100878.09;;;9.33;70.57
41254;BME280;26987;59.928;30.306;2023-04-30T09:05:49;100877.16;;;9.19;73.37
41254;BME280;26987;59.928;30.306;2023-04-30T09:08:19;100890.22;;;9.00;74.46
41254;BME280;26987;59.928;30.306;2023-04-30T09:11:19;100885.16;;;8.90;74.47
41254;BME280;26987;59.928;30.306;2023-04-30T09:13:49;100873.41;;;8.63;76.47
41254;BME280;26987;59.928;30.306;2023-04-30T09:16:18;100887.72;;;8.55;77.16
41254;BME280;26987;59.928;30.306;2023-04-30T09:18:46;100886.53;;;8.42;79.67
41254;BME280;26987;59.928;30.306;2023-04-30T09:21:14;100892.25;;;8.39;79.62
41254;BME280;26987;59.928;30.306;2023-04-30T09:23:54;100889.94;;;8.36;80.01
41254;BME280;26987;59.928;30.306;2023-04-30T09:26:26;100886.00;;;8.32;81.81
41254;BME280;26987;59.928;30.306;2023-04-30T09:28:55;100893.78;;;8.27;82.63
41254;BME280;26987;59.928;30.306;2023-04-30T09:31:24;100846.03;;;7.87;83.00
41254;BME280;26987;59.928;30.306;2023-04-30T09:33:52;100902.44;;;8.14;84.42
41254;BME280;26987;59.928;30.306;2023-04-30T09:36:20;100900.31;;;8.09;84.96
41254;BME280;26987;59.928;30.306;2023-04-30T09:38:48;100899.88;;;8.05;86.55
41254;BME280;26987;59.928;30.306;2023-04-30T09:41:25;100900.50;;;8.07;86.12
41254;BME280;26987;59.928;30.306;2023-04-30T09:43:53;100895.91;;;8.01;87.04
41254;BME280;26987;59.928;30.306;2023-04-30T09:46:28;100901.47;;;8.00;87.68
41254;BME280;26987;59.928;30.306;2023-04-30T09:48:57;100900.97;;;7.96;88.29
41254;BME280;26987;59.928;30.306;2023-04-30T09:51:25;100911.84;;;7.94;87.54
41254;BME280;26987;59.928;30.306;2023-04-30T09:53:54;100889.94;;;7.84;88.39
41254;BME280;26987;59.928;30.306;2023-04-30T09:56:24;100865.75;;;7.70;89.74
41254;BME280;26987;59.928;30.306;2023-04-30T09:58:53;100914.16;;;7.98;88.59
41254;BME280;26987;59.928;30.306;2023-04-30T10:01:24;100879.28;;;7.69;89.13
41254;BME280;26987;59.928;30.306;2023-04-30T10:03:52;100914.69;;;7.93;89.70
41254;BME280;26987;59.928;30.306;2023-04-30T10:06:21;100917.09;;;7.88;89.57
41254;BME280;26987;59.928;30.306;2023-04-30T10:08:52;100931.63;;;7.85;90.12
41254;BME280;26987;59.928;30.306;2023-04-30T10:11:27;100913.50;;;7.80;89.19
41254;BME280;26987;59.928;30.306;2023-04-30T10:13:59;100924.34;;;7.79;89.13
41254;BME280;26987;59.928;30.306;2023-04-30T10:16:33;100913.69;;;7.64;90.19
41254;BME280;26987;59.928;30.306;2023-04-30T10:19:09;100888.28;;;7.53;90.48
41254;BME280;26987;59.928;30.306;2023-04-30T10:21:39;100930.44;;;7.73;90.74
41254;BME280;26987;59.928;30.306;2023-04-30T10:24:09;100923.72;;;7.77;90.92
41254;BME280;26987;59.928;30.306;2023-04-30T10:26:39;100915.25;;;7.73;91.22
41254;BME280;26987;59.928;30.306;2023-04-30T10:29:08;100926.03;;;7.80;92.42
41254;BME280;26987;59.928;30.306;2023-04-30T10:31:37;100912.94;;;7.70;92.43
41254;BME280;26987;59.928;30.306;2023-04-30T10:34:15;100923.38;;;7.80;92.44
41254;BME280;26987;59.928;30.306;2023-04-30T10:36:47;100923.19;;;7.66;91.99
41254;BME280;26987;59.928;30.306;2023-04-30T10:39:18;100922.22;;;7.59;91.95
41254;BME280;26987;59.928;30.306;2023-04-30T10:41:49;100929.78;;;7.55;91.87
41254;BME280;26987;59.928;30.306;2023-04-30T10:44:21;100916.69;;;7.45;93.54
41254;BME280;26987;59.928;30.306;2023-04-30T10:46:57;100928.31;;;7.53;93.73
41254;BME280;26987;59.928;30.306;2023-04-30T10:49:26;100929.41;;;7.43;94.62
41254;BME280;26987;59.928;30.306;2023-04-30T10:51:54;100926.06;;;7.41;94.97
41254;BME280;26987;59.928;30.306;2023-04-30T10:54:27;100919.81;;;7.34;95.45
41254;BME280;26987;59.928;30.306;2023-04-30T10:57:08;100927.34;;;7.45;94.30
41254;BME280;26987;59.928;30.306;2023-04-30T10:59:37;100936.47;;;7.36;94.40
41254;BME280;26987;59.928;30.306;2023-04-30T11:02:04;100925.81;;;7.36;95.06
41254;BME280;26987;59.928;30.306;2023-04-30T11:04:32;100944.13;;;7.39;94.47
41254;BME280;26987;59.928;30.306;2023-04-30T11:07:01;100934.06;;;7.41;93.97
41254;BME280;26987;59.928;30.306;2023-04-30T11:09:35;100937.22;;;7.45;94.81
41254;BME280;26987;59.928;30.306;2023-04-30T11:12:11;100929.03;;;7.47;94.47
41254;BME280;26987;59.928;30.306;2023-04-30T11:14:39;100938.91;;;7.61;91.80
41254;BME280;26987;59.928;30.306;2023-04-30T11:17:09;100942.19;;;7.48;93.32
41254;BME280;26987;59.928;30.306;2023-04-30T11:19:45;100943.66;;;7.51;93.81
41254;BME280;26987;59.928;30.306;2023-04-30T11:22:18;100934.44;;;7.38;95.00
41254;BME280;26987;59.928;30.306;2023-04-30T11:24:52;100941.25;;;7.41;95.63
41254;BME280;26987;59.928;30.306;2023-04-30T11:27:22;100952.38;;;7.44;95.09
41254;BME280;26987;59.928;30.306;2023-04-30T11:29:51;100954.78;;;7.39;95.47
41254;BME280;26987;59.928;30.306;2023-04-30T11:32:19;100952.00;;;7.32;96.43
41254;BME280;26987;59.928;30.306;2023-04-30T11:34:48;100962.13;;;7.37;95.86
41254;BME280;26987;59.928;30.306;2023-04-30T11:37:19;100960.13;;;7.39;95.90
41254;BME280;26987;59.928;30.306;2023-04-30T11:39:49;100953.59;;;7.42;96.59
41254;BME280;26987;59.928;30.306;2023-04-30T11:42:18;100854.94;;;6.80;95.78
41254;BME280;26987;59.928;30.306;2023-04-30T11:44:47;100951.13;;;7.55;95.54
41254;BME280;26987;59.928;30.306;2023-04-30T11:47:15;100960.25;;;7.61;94.64
41254;BME280;26987;59.928;30.306;2023-04-30T11:49:43;100959.34;;;7.69;94.92
41254;BME280;26987;59.928;30.306;2023-04-30T11:52:12;100948.13;;;7.74;94.50
41254;BME280;26987;59.928;30.306;2023-04-30T11:54:40;100955.47;;;7.87;92.86
41254;BME280;26987;59.928;30.306;2023-04-30T11:57:07;100949.31;;;7.86;92.37
41254;BME280;26987;59.928;30.306;2023-04-30T11:59:39;100947.66;;;7.85;91.34
41254;BME280;26987;59.928;30.306;2023-04-30T12:02:09;100937.44;;;7.89;90.95
41254;BME280;26987;59.928;30.306;2023-04-30T12:04:42;100956.03;;;7.97;90.38
41254;BME280;26987;59.928;30.306;2023-04-30T12:07:10;100956.03;;;7.97;90.39
41254;BME280;26987;59.928;30.306;2023-04-30T12:09:53;100946.75;;;8.08;90.08
41254;BME280;26987;59.928;30.306;2023-04-30T12:12:27;100947.28;;;8.03;90.27
41254;BME280;26987;59.928;30.306;2023-04-30T12:14:55;100940.31;;;8.02;89.73
41254;BME280;26987;59.928;30.306;2023-04-30T12:17:32;100958.63;;;8.20;90.68
41254;BME280;26987;59.928;30.306;2023-04-30T12:20:00;100943.34;;;8.14;88.91
41254;BME280;26987;59.928;30.306;2023-04-30T12:22:28;100935.03;;;8.24;88.99
41254;BME280;26987;59.928;30.306;2023-04-30T12:24:57;100944.88;;;8.39;88.55
41254;BME280;26987;59.928;30.306;2023-04-30T12:27:26;100938.19;;;8.50;87.22
41254;BME280;26987;59.928;30.306;2023-04-30T12:29:54;100930.91;;;8.58;86.46
41254;BME280;26987;59.928;30.306;2023-04-30T12:32:22;100928.34;;;8.65;85.24
41254;BME280;26987;59.928;30.306;2023-04-30T12:34:56;100936.88;;;8.76;85.78
41254;BME280;26987;59.928;30.306;2023-04-30T12:37:26;100939.53;;;8.76;85.26
41254;BME280;26987;59.928;30.306;2023-04-30T12:39:54;100940.81;;;8.80;84.75
41254;BME280;26987;59.928;30.306;2023-04-30T12:42:23;100943.50;;;8.80;83.46
41254;BME280;26987;59.928;30.306;2023-04-30T12:44:51;100930.69;;;8.75;83.10
41254;BME280;26987;59.928;30.306;2023-04-30T12:47:19;100939.09;;;8.94;82.87
41254;BME280;26987;59.928;30.306;2023-04-30T12:49:46;100940.84;;;9.02;81.52
41254;BME280;26987;59.928;30.306;2023-04-30T12:52:17;100949.97;;;9.14;81.38
41254;BME280;26987;59.928;30.306;2023-04-30T12:54:49;100949.22;;;9.20;81.33
41254;BME280;26987;59.928;30.306;2023-04-30T12:57:17;100946.41;;;9.29;80.99
41254;BME280;26987;59.928;30.306;2023-04-30T12:59:56;100945.13;;;9.46;81.61
41254;BME280;26987;59.928;30.306;2023-04-30T13:02:27;100952.56;;;9.51;81.10